Time;durP1;ratioP1;P1;durP2;ratioP2;P2;SDS_P1;SDS_P2;PMS_P1;PMS_P2;Temp;Humidity;BMP_temperature;BMP_pressure;BME280_temperature;BME280_humidity;BME280_pressure;Samples;Min_cycle;Max_cycle;Signal;HPM_P1;HPM_P2
2023/05/05 00:01:14;;;;;;;6.13;4.70;;;;;;;8.72;nan;99675.06;6110416;23;20173;-85
2023/05/05 00:03:41;;;;;;;5.70;4.40;;;;;;;8.73;nan;99676.69;6134470;23;20171;-84
2023/05/05 00:06:08;;;;;;;7.00;4.47;;;;;;;8.72;nan;99673.22;6134847;23;20205;-86
2023/05/05 00:08:35;;;;;;;5.40;4.70;;;;;;;8.76;nan;99665.59;6134563;23;20633;-86
2023/05/05 00:11:02;;;;;;;5.87;4.80;;;;;;;8.75;nan;99661.28;6134251;23;20173;-84
2023/05/05 00:13:28;;;;;;;5.83;5.23;;;;;;;8.73;nan;99661.47;6134019;23;20179;-86
2023/05/05 00:15:55;;;;;;;5.63;4.60;;;;;;;8.73;nan;99661.47;6134251;23;20177;-87
2023/05/05 00:18:22;;;;;;;5.07;4.53;;;;;;;8.62;nan;99670.13;6184596;23;20174;-86
2023/05/05 00:20:49;;;;;;;4.80;4.33;;;;;;;8.62;nan;99678.16;6109916;23;20162;-85
2023/05/05 00:23:16;;;;;;;5.87;5.27;;;;;;;8.47;nan;99668.69;6134379;23;20177;-85
2023/05/05 00:25:43;;;;;;;5.73;5.00;;;;;;;8.40;nan;99664.16;6157775;23;20517;-86
2023/05/05 00:28:10;;;;;;;8.20;5.13;;;;;;;8.43;nan;99665.59;6183839;23;20175;-86
2023/05/05 00:30:38;;;;;;;7.53;5.37;;;;;;;8.41;nan;99670.31;6134620;23;20628;-88
2023/05/05 00:33:05;;;;;;;5.77;5.27;;;;;;;8.34;nan;99665.00;6134624;23;20175;-85
2023/05/05 00:35:32;;;;;;;6.07;5.40;;;;;;;8.30;nan;99660.25;6159714;23;20212;-86
2023/05/05 00:37:59;;;;;;;5.50;5.00;;;;;;;8.30;nan;99652.25;6184512;23;20189;-84
2023/05/05 00:40:27;;;;;;;5.73;5.23;;;;;;;8.25;nan;99652.00;6137164;23;20166;-84
2023/05/05 00:42:53;;;;;;;6.20;5.60;;;;;;;8.26;nan;99646.44;6136564;23;20182;-85
2023/05/05 00:45:20;;;;;;;5.97;5.40;;;;;;;8.16;nan;99632.72;6136329;23;20178;-85
2023/05/05 00:47:52;;;;;;;6.40;5.80;;;;;;;8.16;nan;99642.56;6161254;23;20249;-86
2023/05/05 00:50:22;;;;;;;8.23;5.77;;;;;;;8.02;nan;99639.06;6160667;23;20256;-85
2023/05/05 00:52:50;;;;;;;6.10;5.60;;;;;;;8.01;nan;99639.25;6136693;23;20166;-85
2023/05/05 00:55:18;;;;;;;6.23;5.63;;;;;;;8.05;nan;99635.13;6160326;23;20178;-87
2023/05/05 00:57:44;;;;;;;8.07;5.60;;;;;;;8.03;nan;99640.66;6136448;23;20194;-84
2023/05/05 01:00:12;;;;;;;6.33;5.73;;;;;;;7.99;nan;99626.09;6160757;23;20244;-84
2023/05/05 01:02:39;;;;;;;6.27;5.57;;;;;;;7.93;nan;99630.38;6160773;23;20174;-84
2023/05/05 01:05:08;;;;;;;6.00;5.50;;;;;;;7.92;nan;99625.28;6136579;23;20170;-86
2023/05/05 01:07:44;;;;;;;7.33;6.27;;;;;;;7.87;nan;99633.88;6161194;23;20499;-84
2023/05/05 01:10:39;;;;;;;6.40;5.80;;;;;;;7.93;nan;99627.72;6185619;23;20166;-86
2023/05/05 01:13:31;;;;;;;6.23;5.63;;;;;;;7.85;nan;99622.59;6160999;23;20245;-86
2023/05/05 01:16:19;;;;;;;7.00;6.33;;;;;;;7.79;nan;99619.91;6136709;23;20193;-86
2023/05/05 01:19:07;;;;;;;6.67;6.07;;;;;;;7.72;nan;99624.41;6136377;23;20210;-85
2023/05/05 01:21:38;;;;;;;7.30;6.60;;;;;;;7.71;nan;99628.09;6161079;23;20173;-85
2023/05/05 01:24:11;;;;;;;6.37;5.87;;;;;;;7.68;nan;99626.66;6135807;23;20284;-86
2023/05/05 01:27:06;;;;;;;6.80;6.10;;;;;;;7.70;nan;99621.13;6185692;23;20171;-86
2023/05/05 01:30:10;;;;;;;7.73;6.30;;;;;;;7.60;nan;99626.84;6185074;23;20237;-86
2023/05/05 01:32:44;;;;;;;7.90;6.27;;;;;;;7.55;nan;99628.47;6160700;23;20192;-86
2023/05/05 01:35:11;;;;;;;7.03;6.13;;;;;;;7.45;nan;99627.00;6136504;23;20170;-84
2023/05/05 01:37:52;;;;;;;6.50;5.90;;;;;;;7.48;nan;99631.09;6160855;23;20492;-84
2023/05/05 01:40:33;;;;;;;7.67;5.97;;;;;;;7.43;nan;99621.03;6160470;23;20178;-87
2023/05/05 01:43:01;;;;;;;7.30;6.23;;;;;;;7.34;nan;99614.22;6136282;23;20592;-87
2023/05/05 01:45:31;;;;;;;6.83;6.23;;;;;;;7.29;nan;99613.16;6160505;23;20505;-87
2023/05/05 01:47:58;;;;;;;6.77;6.07;;;;;;;7.30;nan;99612.97;6160681;23;20166;-84
2023/05/05 01:50:27;;;;;;;6.60;6.00;;;;;;;7.24;nan;99608.44;6184671;23;20223;-85
2023/05/05 01:52:55;;;;;;;6.30;5.80;;;;;;;7.19;nan;99605.53;6185298;23;20629;-87
2023/05/05 01:55:24;;;;;;;7.17;6.50;;;;;;;7.19;nan;99602.06;6136083;23;20634;-86
2023/05/05 01:57:52;;;;;;;7.10;6.50;;;;;;;7.11;nan;99610.22;6136207;23;20186;-85
2023/05/05 02:00:20;;;;;;;6.63;5.93;;;;;;;7.08;nan;99606.13;6136604;23;20178;-85
2023/05/05 02:02:48;;;;;;;7.20;6.50;;;;;;;7.15;nan;99609.63;6136324;23;20174;-85
2023/05/05 02:05:18;;;;;;;6.73;6.00;;;;;;;7.09;nan;99610.44;6136389;23;20170;-84
2023/05/05 02:07:45;;;;;;;6.67;6.00;;;;;;;6.92;nan;99606.44;6160593;23;20174;-84
2023/05/05 02:10:12;;;;;;;7.50;6.80;;;;;;;6.80;nan;99608.00;6136226;23;20625;-85
2023/05/05 02:12:41;;;;;;;7.47;6.77;;;;;;;6.76;nan;99606.75;6160390;23;20174;-86
2023/05/05 02:15:09;;;;;;;7.67;6.87;;;;;;;6.79;nan;99609.03;6160286;23;20171;-87
2023/05/05 02:17:36;;;;;;;7.17;6.57;;;;;;;6.66;nan;99606.28;6160331;23;20233;-86
2023/05/05 02:20:03;;;;;;;7.03;6.37;;;;;;;6.63;nan;99604.81;6160490;23;20171;-86
2023/05/05 02:22:31;;;;;;;8.53;7.13;;;;;;;6.56;nan;99599.47;6185261;23;20170;-87
2023/05/05 02:24:59;;;;;;;7.33;6.67;;;;;;;6.58;nan;99607.25;6184883;23;20198;-87
2023/05/05 02:27:27;;;;;;;7.10;6.40;;;;;;;6.58;nan;99593.94;6135753;23;20675;-85
2023/05/05 02:29:57;;;;;;;7.60;6.90;;;;;;;6.62;nan;99603.19;6185077;23;20170;-87
2023/05/05 02:32:33;;;;;;;7.80;7.00;;;;;;;6.51;nan;99601.88;6136072;23;20155;-85
2023/05/05 02:35:04;;;;;;;7.87;7.07;;;;;;;6.53;nan;99604.38;6136130;23;20201;-85
2023/05/05 02:37:32;;;;;;;7.17;6.47;;;;;;;6.53;nan;99607.81;6135978;23;20488;-85
2023/05/05 02:40:02;;;;;;;7.83;6.43;;;;;;;6.53;nan;99599.03;6184688;23;20171;-88
2023/05/05 02:42:34;;;;;;;6.90;6.20;;;;;;;6.48;nan;99590.81;6160528;23;20245;-84
2023/05/05 02:45:11;;;;;;;6.77;6.17;;;;;;;6.49;nan;99589.78;6160133;23;20165;-86
2023/05/05 02:47:40;;;;;;;7.87;7.03;;;;;;;6.47;nan;99587.31;6136651;23;20676;-86
2023/05/05 02:50:08;;;;;;;7.30;6.70;;;;;;;6.47;nan;99586.50;6160094;23;20166;-85
2023/05/05 02:52:39;;;;;;;7.70;6.80;;;;;;;6.41;nan;99589.94;6160975;23;20167;-85
2023/05/05 02:55:06;;;;;;;10.07;6.93;;;;;;;6.36;nan;99590.50;6159802;23;20304;-85
2023/05/05 02:58:00;;;;;;;7.77;7.07;;;;;;;6.35;nan;99602.16;6137187;23;20192;-85
2023/05/05 03:00:35;;;;;;;7.13;6.43;;;;;;;6.34;nan;99589.06;6160223;23;20174;-86
2023/05/05 03:03:12;;;;;;;7.60;6.90;;;;;;;6.34;nan;99592.56;6160481;23;20166;-84
2023/05/05 03:05:46;;;;;;;7.10;6.50;;;;;;;6.32;nan;99594.56;6161356;23;20687;-86
2023/05/05 03:08:16;;;;;;;7.17;6.53;;;;;;;6.26;nan;99600.66;6160265;23;20170;-87
2023/05/05 03:10:49;;;;;;;7.90;6.70;;;;;;;6.20;nan;99601.44;6135548;23;20158;-83
2023/05/05 03:13:17;;;;;;;7.33;6.63;;;;;;;6.10;nan;99604.44;6136032;23;20167;-86
2023/05/05 03:15:47;;;;;;;8.50;7.13;;;;;;;6.11;nan;99608.72;6135675;23;20176;-86
2023/05/05 03:18:17;;;;;;;7.77;7.07;;;;;;;6.03;nan;99602.72;6160250;23;20269;-86
2023/05/05 03:20:49;;;;;;;7.23;6.53;;;;;;;6.05;nan;99606.84;6137596;23;20186;-84
2023/05/05 03:23:19;;;;;;;7.97;7.00;;;;;;;6.05;nan;99608.66;6160253;23;20703;-85
2023/05/05 03:25:49;;;;;;;8.00;7.20;;;;;;;5.99;nan;99604.09;6160167;23;20209;-87
2023/05/05 03:28:29;;;;;;;7.17;6.47;;;;;;;5.98;nan;99599.78;6162837;23;20185;-87
2023/05/05 03:31:01;;;;;;;7.57;6.90;;;;;;;5.98;nan;99607.78;6184364;23;20477;-87
2023/05/05 03:33:31;;;;;;;7.63;6.83;;;;;;;5.97;nan;99598.19;6136537;23;20245;-88
2023/05/05 03:35:59;;;;;;;7.57;6.87;;;;;;;5.98;nan;99600.63;6135690;23;20192;-85
2023/05/05 03:38:26;;;;;;;9.03;7.07;;;;;;;5.95;nan;99601.00;6184168;23;20476;-87
2023/05/05 03:40:53;;;;;;;8.00;7.20;;;;;;;5.90;nan;99605.25;6184047;23;20175;-88
2023/05/05 03:43:22;;;;;;;7.93;7.13;;;;;;;5.96;nan;99610.66;6159958;23;20167;-85
2023/05/05 03:45:49;;;;;;;7.57;6.77;;;;;;;5.96;nan;99608.00;6135238;23;20177;-86
2023/05/05 03:48:16;;;;;;;7.70;6.97;;;;;;;6.00;nan;99605.75;6159667;23;20174;-87
2023/05/05 03:50:45;;;;;;;7.77;7.07;;;;;;;6.07;nan;99603.97;6159561;23;20609;-86
2023/05/05 03:53:14;;;;;;;7.80;7.00;;;;;;;6.11;nan;99611.38;6160057;23;20171;-86
2023/05/05 03:55:41;;;;;;;7.63;6.93;;;;;;;6.23;nan;99616.19;6135501;23;20594;-86
2023/05/05 03:58:09;;;;;;;8.80;7.20;;;;;;;6.38;nan;99612.44;6159325;23;20267;-86
2023/05/05 04:00:36;;;;;;;7.70;7.00;;;;;;;6.51;nan;99615.19;6135365;23;20616;-85
2023/05/05 04:03:03;;;;;;;7.27;6.67;;;;;;;6.50;nan;99621.53;6159642;23;20256;-86
2023/05/05 04:05:30;;;;;;;7.23;6.53;;;;;;;6.53;nan;99626.47;6134991;23;20193;-87
2023/05/05 04:07:57;;;;;;;7.80;6.67;;;;;;;6.62;nan;99614.63;6135057;23;20177;-85
2023/05/05 04:10:24;;;;;;;7.40;6.50;;;;;;;6.71;nan;99623.31;6135216;23;20201;-86
2023/05/05 04:12:51;;;;;;;8.17;6.77;;;;;;;6.70;nan;99621.69;6134968;23;20168;-87
2023/05/05 04:15:18;;;;;;;7.37;6.63;;;;;;;6.84;nan;99615.41;6159056;23;20180;-86
2023/05/05 04:17:45;;;;;;;7.40;6.40;;;;;;;6.95;nan;99622.84;6135239;23;20251;-86
2023/05/05 04:20:12;;;;;;;7.17;6.50;;;;;;;7.13;nan;99621.50;6159230;23;20174;-85
2023/05/05 04:22:39;;;;;;;7.20;6.50;;;;;;;7.30;nan;99628.97;6159592;23;20178;-86
2023/05/05 04:25:06;;;;;;;8.73;6.73;;;;;;;7.44;nan;99627.19;6158910;23;20237;-86
2023/05/05 04:27:34;;;;;;;8.13;6.33;;;;;;;7.59;nan;99640.38;6135166;23;20179;-86
2023/05/05 04:30:01;;;;;;;8.03;6.23;;;;;;;7.73;nan;99637.53;6134943;23;20245;-86
2023/05/05 04:32:30;;;;;;;6.73;6.03;;;;;;;7.88;nan;99632.88;6159648;23;20174;-85
2023/05/05 04:34:57;;;;;;;7.13;6.43;;;;;;;8.07;nan;99639.22;6134542;23;20174;-86
2023/05/05 04:37:24;;;;;;;7.20;6.10;;;;;;;8.19;nan;99642.13;6159182;23;20179;-84
2023/05/05 04:39:51;;;;;;;6.30;5.67;;;;;;;8.22;nan;99633.72;6134849;23;20186;-86
2023/05/05 04:42:18;;;;;;;6.57;5.90;;;;;;;8.42;nan;99642.59;6158995;23;20166;-84
2023/05/05 04:44:45;;;;;;;7.70;6.83;;;;;;;8.75;nan;99642.59;6159235;23;20182;-87
2023/05/05 04:47:12;;;;;;;7.80;7.00;;;;;;;8.89;nan;99649.53;6158914;23;20200;-85
2023/05/05 04:49:40;;;;;;;7.90;5.80;;;;;;;9.13;nan;99656.91;6159052;23;20220;-83
2023/05/05 04:52:07;;;;;;;6.13;5.53;;;;;;;9.29;nan;99651.09;6158707;23;20637;-86
2023/05/05 04:54:35;;;;;;;5.50;5.00;;;;;;;9.49;nan;99659.03;6134960;23;20174;-85
2023/05/05 04:57:02;;;;;;;5.77;5.27;;;;;;;9.65;nan;99660.44;6158815;23;20676;-85
2023/05/05 04:59:29;;;;;;;5.33;4.87;;;;;;;9.85;nan;99662.97;6183146;23;20270;-85
2023/05/05 05:01:56;;;;;;;5.63;5.10;;;;;;;10.02;nan;99669.50;6158739;23;20182;-85
2023/05/05 05:04:24;;;;;;;5.90;5.20;;;;;;;10.08;nan;99673.97;6134209;23;20226;-85
2023/05/05 05:06:51;;;;;;;6.20;5.17;;;;;;;10.26;nan;99676.78;6134426;23;20185;-85
2023/05/05 05:09:18;;;;;;;6.20;4.97;;;;;;;10.36;nan;99673.66;6158427;23;20177;-85
2023/05/05 05:11:45;;;;;;;7.07;4.93;;;;;;;10.54;nan;99666.47;6158570;23;20181;-85
2023/05/05 05:14:11;;;;;;;5.70;4.97;;;;;;;10.73;nan;99677.25;6183238;23;20166;-84
2023/05/05 05:16:38;;;;;;;8.63;5.43;;;;;;;10.84;nan;99672.00;6158134;23;20175;-84
2023/05/05 05:19:05;;;;;;;6.50;5.40;;;;;;;10.95;nan;99668.59;6158648;23;20198;-87
2023/05/05 05:21:32;;;;;;;6.10;5.33;;;;;;;11.01;nan;99673.06;6183002;23;20178;-84
2023/05/05 05:23:59;;;;;;;8.87;5.60;;;;;;;11.15;nan;99679.09;6139739;23;20201;-84
2023/05/05 05:26:26;;;;;;;8.43;5.13;;;;;;;11.28;nan;99673.63;6165300;23;20232;-83
2023/05/05 05:28:53;;;;;;;5.40;4.90;;;;;;;11.38;nan;99681.94;6165201;23;20174;-84
2023/05/05 05:31:20;;;;;;;13.20;5.70;;;;;;;11.56;nan;99683.84;6164975;23;20173;-86
2023/05/05 05:33:47;;;;;;;9.43;5.70;;;;;;;11.56;nan;99675.78;6164789;23;20176;-84
2023/05/05 05:36:14;;;;;;;9.57;5.57;;;;;;;11.70;nan;99682.63;6189697;23;20196;-83
2023/05/05 05:38:41;;;;;;;10.83;5.70;;;;;;;11.80;nan;99680.25;6164739;23;20236;-84
2023/05/05 05:41:08;;;;;;;11.20;5.80;;;;;;;11.99;nan;99682.91;6164747;23;20173;-84
2023/05/05 05:43:36;;;;;;;9.40;5.47;;;;;;;11.94;nan;99686.28;6165251;23;20170;-86
2023/05/05 05:46:03;;;;;;;15.07;6.00;;;;;;;11.65;nan;99682.47;6164973;23;20569;-84
2023/05/05 05:48:33;;;;;;;11.43;5.87;;;;;;;11.60;nan;99684.19;6165483;23;20196;-84
2023/05/05 05:51:01;;;;;;;9.00;5.73;;;;;;;12.01;nan;99689.69;6140211;23;20193;-83
2023/05/05 05:53:28;;;;;;;5.80;5.30;;;;;;;12.35;nan;99688.19;6164700;23;20170;-84
2023/05/05 05:55:55;;;;;;;6.10;5.50;;;;;;;12.45;nan;99687.63;6164566;23;20209;-83
2023/05/05 05:58:22;;;;;;;6.40;5.60;;;;;;;12.29;nan;99697.16;6162977;23;20169;-85
2023/05/05 06:00:50;;;;;;;10.73;5.87;;;;;;;12.73;nan;99696.69;6140564;23;20170;-84
2023/05/05 06:03:16;;;;;;;10.60;6.10;;;;;;;12.99;nan;99691.88;6189083;23;20174;-84
2023/05/05 06:05:45;;;;;;;9.90;6.20;;;;;;;12.70;nan;99693.59;6140016;23;20165;-84
2023/05/05 06:08:12;;;;;;;10.93;5.67;;;;;;;12.80;nan;99696.53;6164875;23;20170;-85
2023/05/05 06:10:46;;;;;;;9.43;5.90;;;;;;;12.78;nan;99695.97;6165101;23;20174;-83
2023/05/05 06:13:16;;;;;;;10.13;6.43;;;;;;;13.17;nan;99694.47;6165117;23;20166;-83
2023/05/05 06:15:46;;;;;;;6.57;5.67;;;;;;;13.37;nan;99694.94;6164512;23;20180;-84
2023/05/05 06:18:13;;;;;;;6.50;5.90;;;;;;;13.56;nan;99692.94;6164560;23;20228;-83
2023/05/05 06:20:42;;;;;;;8.93;5.87;;;;;;;13.80;nan;99694.50;6140143;23;20293;-83
2023/05/05 06:23:10;;;;;;;7.37;6.53;;;;;;;14.23;nan;99699.34;6164954;23;20182;-84
2023/05/05 06:25:42;;;;;;;7.27;6.13;;;;;;;14.31;nan;99700.88;6165376;23;20202;-81
2023/05/05 06:28:08;;;;;;;8.27;6.57;;;;;;;14.75;nan;99699.22;6164168;23;20170;-82
2023/05/05 06:30:35;;;;;;;8.23;6.77;;;;;;;15.07;nan;99700.25;6138832;23;20178;-83
2023/05/05 06:33:02;;;;;;;8.53;7.10;;;;;;;14.69;nan;99692.94;6139533;23;20254;-83
2023/05/05 06:35:29;;;;;;;8.93;6.77;;;;;;;14.48;nan;99696.34;6139832;23;20495;-81
2023/05/05 06:37:56;;;;;;;9.17;7.07;;;;;;;14.94;nan;99697.91;6164274;23;20179;-82
2023/05/05 06:40:23;;;;;;;9.17;7.30;;;;;;;15.34;nan;99697.72;6137804;23;20204;-81
2023/05/05 06:42:49;;;;;;;8.27;6.43;;;;;;;15.76;nan;99704.25;6162994;23;20165;-83
2023/05/05 06:45:21;;;;;;;10.17;7.07;;;;;;;15.93;nan;99693.34;6140869;23;20618;-82
2023/05/05 06:47:48;;;;;;;7.07;6.40;;;;;;;15.96;nan;99697.47;6138935;23;20177;-82
2023/05/05 06:50:15;;;;;;;10.63;7.17;;;;;;;15.99;nan;99696.94;6138911;23;20173;-82
2023/05/05 06:52:42;;;;;;;8.83;7.10;;;;;;;16.22;nan;99699.34;6139033;23;20231;-82
2023/05/05 06:55:08;;;;;;;8.93;6.93;;;;;;;16.33;nan;99700.28;6138706;23;20166;-82
2023/05/05 06:57:35;;;;;;;8.17;7.27;;;;;;;16.19;nan;99697.16;6139272;23;20193;-83
2023/05/05 07:00:04;;;;;;;8.27;7.30;;;;;;;16.38;nan;99706.53;6137979;23;20184;-82
2023/05/05 07:02:32;;;;;;;7.83;7.10;;;;;;;15.68;nan;99710.06;6136052;23;20162;-82
2023/05/05 07:04:59;;;;;;;8.10;7.30;;;;;;;15.86;nan;99712.44;6160074;23;20170;-82
2023/05/05 07:07:26;;;;;;;7.73;7.03;;;;;;;16.09;nan;99714.09;6138910;23;20177;-82
2023/05/05 07:09:52;;;;;;;7.93;7.27;;;;;;;16.46;nan;99702.56;6163331;23;20169;-82
2023/05/05 07:12:19;;;;;;;10.93;7.53;;;;;;;16.62;nan;99705.19;6161820;23;20174;-82
2023/05/05 07:14:46;;;;;;;10.10;7.30;;;;;;;16.42;nan;99696.88;6163491;23;20177;-82
2023/05/05 07:17:12;;;;;;;9.03;8.13;;;;;;;16.22;nan;99702.06;6163208;23;20170;-82
2023/05/05 07:19:39;;;;;;;8.53;7.83;;;;;;;16.75;nan;99708.53;6139248;23;20648;-82
2023/05/05 07:22:06;;;;;;;8.37;7.47;;;;;;;16.41;nan;99699.81;6163793;23;20173;-81
2023/05/05 07:24:33;;;;;;;7.77;7.03;;;;;;;16.78;nan;99697.19;6149216;23;20225;-82
2023/05/05 07:27:00;;;;;;;9.27;7.73;;;;;;;16.78;nan;99710.72;6133974;23;20168;-82
2023/05/05 07:29:27;;;;;;;9.00;8.10;;;;;;;17.21;nan;99705.09;6133694;23;20174;-82
2023/05/05 07:31:54;;;;;;;7.70;6.90;;;;;;;17.32;nan;99703.25;6131486;23;20224;-81
2023/05/05 07:34:20;;;;;;;8.00;7.30;;;;;;;17.08;nan;99700.13;6155635;23;20163;-82
2023/05/05 07:36:47;;;;;;;9.97;7.27;;;;;;;17.58;nan;99691.50;6157036;23;20162;-82
2023/05/05 07:39:14;;;;;;;8.47;7.40;;;;;;;17.50;nan;99691.97;6108601;23;20216;-81
2023/05/05 07:41:41;;;;;;;8.13;7.20;;;;;;;17.57;nan;99690.69;6183042;23;20671;-81
2023/05/05 07:44:08;;;;;;;8.40;6.80;;;;;;;17.98;nan;99696.28;6108566;23;20175;-81
2023/05/05 07:46:35;;;;;;;8.30;7.50;;;;;;;17.30;nan;99697.31;6107988;23;20174;-81
2023/05/05 07:49:02;;;;;;;8.73;7.23;;;;;;;17.09;nan;99688.22;6133146;23;20166;-82
2023/05/05 07:51:30;;;;;;;7.73;7.03;;;;;;;17.47;nan;99685.22;6157616;23;20170;-82
2023/05/05 07:53:59;;;;;;;8.97;8.03;;;;;;;16.95;nan;99687.84;6158180;23;20513;-82
2023/05/05 07:56:26;;;;;;;7.13;6.53;;;;;;;17.72;nan;99687.25;6107376;23;20191;-82
2023/05/05 07:58:53;;;;;;;7.03;6.40;;;;;;;18.08;nan;99684.66;6132141;23;20618;-81
2023/05/05 08:01:19;;;;;;;7.37;6.73;;;;;;;18.50;nan;99690.72;6132661;23;20229;-81
2023/05/05 08:03:46;;;;;;;7.70;6.97;;;;;;;18.76;nan;99697.00;6108949;23;20174;-81
2023/05/05 08:06:20;;;;;;;7.97;7.00;;;;;;;18.97;nan;99695.91;6133131;23;20166;-81
2023/05/05 08:08:48;;;;;;;10.07;9.00;;;;;;;18.95;nan;99694.53;6134650;23;20151;-81
2023/05/05 08:11:15;;;;;;;9.20;8.37;;;;;;;18.81;nan;99695.09;6157570;23;20171;-81
2023/05/05 08:13:43;;;;;;;8.40;7.53;;;;;;;19.16;nan;99696.97;6157284;23;20262;-81
2023/05/05 08:16:10;;;;;;;8.63;7.83;;;;;;;19.03;nan;99686.69;6133000;23;20170;-81
2023/05/05 08:18:37;;;;;;;8.83;8.03;;;;;;;19.12;nan;99686.94;6133056;23;20174;-81
2023/05/05 08:21:04;;;;;;;9.33;8.43;;;;;;;19.12;nan;99690.47;6108691;23;20189;-81
2023/05/05 08:23:32;;;;;;;10.57;8.97;;;;;;;18.97;nan;99689.66;6107986;23;20305;-81
2023/05/05 08:25:59;;;;;;;10.20;9.20;;;;;;;19.27;nan;99690.44;6157192;23;20607;-81
2023/05/05 08:28:27;;;;;;;8.70;7.83;;;;;;;19.43;nan;99680.34;6108117;23;20176;-80
2023/05/05 08:30:53;;;;;;;10.90;9.10;;;;;;;19.61;nan;99684.38;6157471;23;20617;-80
2023/05/05 08:33:20;;;;;;;10.00;8.97;;;;;;;19.39;nan;99683.88;6132703;23;20183;-81
2023/05/05 08:35:48;;;;;;;9.03;8.23;;;;;;;19.63;nan;99682.22;6132506;23;20181;-81
2023/05/05 08:38:14;;;;;;;9.33;8.43;;;;;;;19.75;nan;99680.81;6157135;23;20171;-82
2023/05/05 08:40:41;;;;;;;8.50;7.13;;;;;;;20.08;nan;99687.44;6156788;23;20203;-82
2023/05/05 08:43:10;;;;;;;9.57;8.67;;;;;;;20.16;nan;99673.25;6133998;23;20612;-80
2023/05/05 08:45:41;;;;;;;9.67;8.77;;;;;;;20.22;nan;99674.84;6157115;23;20175;-81
2023/05/05 08:48:08;;;;;;;9.07;8.17;;;;;;;20.40;nan;99675.31;6152841;23;20192;-81
2023/05/05 08:50:35;;;;;;;8.70;7.90;;;;;;;20.64;nan;99678.94;6151345;23;20182;-81
2023/05/05 08:53:09;;;;;;;8.73;7.93;;;;;;;20.72;nan;99677.53;6151250;23;20172;-80
2023/05/05 08:55:45;;;;;;;9.50;8.60;;;;;;;20.43;nan;99672.03;6131266;23;20172;-81
2023/05/05 08:58:12;;;;;;;8.77;7.97;;;;;;;20.39;nan;99671.75;6156154;23;20155;-81
2023/05/05 09:00:41;;;;;;;10.10;8.00;;;;;;;20.56;nan;99671.38;6132907;23;20800;-80
2023/05/05 09:03:08;;;;;;;8.17;7.37;;;;;;;20.54;nan;99666.22;6134069;23;20197;-81
2023/05/05 09:05:36;;;;;;;7.17;6.47;;;;;;;20.77;nan;99667.38;6134321;23;20170;-80
2023/05/05 09:08:08;;;;;;;6.13;5.53;;;;;;;21.13;nan;99667.09;6185168;23;20157;-80
2023/05/05 09:10:37;;;;;;;7.10;6.13;;;;;;;21.35;nan;99667.41;6131447;23;20163;-80
2023/05/05 09:13:04;;;;;;;6.60;6.00;;;;;;;21.48;nan;99659.34;6155833;23;20175;-81
2023/05/05 09:15:32;;;;;;;7.00;6.37;;;;;;;21.71;nan;99657.72;6158876;23;20247;-80
2023/05/05 09:18:00;;;;;;;6.70;6.10;;;;;;;21.83;nan;99660.03;6158985;23;20169;-80
2023/05/05 09:20:34;;;;;;;7.07;6.37;;;;;;;21.51;nan;99649.78;6158682;23;20190;-80
2023/05/05 09:23:12;;;;;;;7.63;6.93;;;;;;;21.61;nan;99651.56;6134684;23;20237;-80
2023/05/05 09:25:42;;;;;;;8.03;7.20;;;;;;;21.62;nan;99656.75;6180389;23;20192;-80
2023/05/05 09:28:10;;;;;;;7.77;6.83;;;;;;;21.64;nan;99646.38;6159200;23;20174;-80
2023/05/05 09:30:38;;;;;;;7.67;6.97;;;;;;;21.78;nan;99646.47;6133692;23;20175;-81
2023/05/05 09:33:05;;;;;;;7.40;6.60;;;;;;;21.77;nan;99645.66;6182610;23;20169;-81
2023/05/05 09:35:52;;;;;;;8.13;7.00;;;;;;;21.72;nan;99636.72;6183430;23;20170;-81
2023/05/05 09:38:19;;;;;;;9.13;6.50;;;;;;;21.92;nan;99641.91;6131563;23;20174;-80
2023/05/05 09:40:48;;;;;;;7.80;7.00;;;;;;;21.80;nan;99645.06;6158584;23;20188;-80
2023/05/05 09:43:16;;;;;;;7.40;6.70;;;;;;;21.81;nan;99638.50;6159068;23;20621;-81
2023/05/05 09:45:43;;;;;;;7.07;6.50;;;;;;;21.89;nan;99639.75;6183419;23;20221;-81
2023/05/05 09:48:27;;;;;;;7.37;5.93;;;;;;;21.93;nan;99638.09;6158850;23;20176;-81
2023/05/05 09:50:54;;;;;;;7.07;6.40;;;;;;;21.93;nan;99638.09;6134527;23;20265;-80
2023/05/05 09:53:22;;;;;;;6.47;5.97;;;;;;;22.03;nan;99635.22;6158801;23;20247;-80
2023/05/05 09:55:55;;;;;;;8.10;6.27;;;;;;;21.95;nan;99638.63;6183374;23;20168;-80
2023/05/05 09:58:24;;;;;;;6.90;5.83;;;;;;;21.94;nan;99636.97;6183874;23;20150;-80
2023/05/05 10:00:52;;;;;;;6.87;6.17;;;;;;;22.07;nan;99636.25;6182941;23;20189;-80
2023/05/05 10:03:19;;;;;;;7.38;6.40;;;;;;;22.13;nan;99642.44;6183324;23;20166;-80
2023/05/05 10:05:54;;;;;;;6.72;5.97;;;;;;;22.24;nan;99641.22;6183328;23;20170;-80
2023/05/05 10:08:24;;;;;;;6.13;5.57;;;;;;;22.41;nan;99641.47;6134096;23;20220;-79
2023/05/05 10:10:56;;;;;;;5.97;5.47;;;;;;;22.42;nan;99632.19;6184237;23;20652;-80
2023/05/05 10:13:23;;;;;;;6.78;5.53;;;;;;;22.49;nan;99629.09;6183400;23;20147;-79
2023/05/05 10:15:55;;;;;;;7.60;5.40;;;;;;;22.57;nan;99628.41;6182911;23;20170;-80
2023/05/05 10:18:26;;;;;;;5.78;4.93;;;;;;;22.77;nan;99630.81;6155836;23;20165;-80
2023/05/05 10:21:01;;;;;;;5.57;4.80;;;;;;;22.85;nan;99629.31;6157797;23;20186;-80
2023/05/05 10:23:36;;;;;;;5.25;4.70;;;;;;;22.81;nan;99620.94;6132536;23;20167;-80
2023/05/05 10:26:07;;;;;;;6.15;4.80;;;;;;;22.78;nan;99621.50;6155147;23;20154;-81
2023/05/05 10:28:49;;;;;;;4.90;4.40;;;;;;;22.24;nan;99620.19;6157977;23;20179;-81
2023/05/05 10:31:20;;;;;;;5.50;4.50;;;;;;;22.47;nan;99621.19;6133562;23;20677;-80
2023/05/05 10:33:59;;;;;;;4.90;4.38;;;;;;;22.64;nan;99607.78;6111281;23;20170;-80
2023/05/05 10:36:26;;;;;;;3.97;3.65;;;;;;;22.92;nan;99611.41;6133706;23;20181;-81
2023/05/05 10:38:55;;;;;;;4.50;4.10;;;;;;;23.09;nan;99608.94;6109063;23;20270;-80
2023/05/05 10:41:23;;;;;;;5.85;4.68;;;;;;;23.25;nan;99607.50;6156334;23;20186;-81
2023/05/05 10:43:52;;;;;;;4.47;4.07;;;;;;;23.44;nan;99606.59;6133114;23;20180;-79
2023/05/05 10:46:18;;;;;;;5.28;4.15;;;;;;;23.56;nan;99604.19;6184538;23;20220;-81
2023/05/05 10:48:56;;;;;;;5.75;4.18;;;;;;;23.35;nan;99598.31;6133620;23;20170;-81
2023/05/05 10:51:46;;;;;;;5.22;3.63;;;;;;;23.59;nan;99584.44;6109716;23;20173;-80
2023/05/05 10:54:18;;;;;;;4.93;4.20;;;;;;;23.84;nan;99580.34;6133702;23;20238;-80
2023/05/05 10:56:46;;;;;;;5.13;4.03;;;;;;;24.04;nan;99577.13;6158348;23;20186;-81
2023/05/05 10:59:34;;;;;;;4.38;3.97;;;;;;;24.21;nan;99574.56;6158178;23;20151;-80
2023/05/05 11:02:20;;;;;;;4.10;3.75;;;;;;;24.37;nan;99577.72;6184512;23;20263;-80
2023/05/05 11:05:09;;;;;;;6.05;3.60;;;;;;;24.45;nan;99569.56;6133813;23;20158;-79
2023/05/05 11:07:36;;;;;;;4.13;3.72;;;;;;;24.09;nan;99566.06;6184282;23;20154;-79
2023/05/05 11:10:05;;;;;;;4.43;4.07;;;;;;;23.75;nan;99563.81;6158039;23;20220;-80
2023/05/05 11:12:52;;;;;;;4.45;3.50;;;;;;;24.12;nan;99560.75;6155252;23;20167;-80
2023/05/05 11:15:22;;;;;;;3.63;3.33;;;;;;;24.30;nan;99563.69;6183756;23;20171;-79
2023/05/05 11:17:49;;;;;;;3.95;3.55;;;;;;;24.45;nan;99558.63;6184163;23;20162;-79
2023/05/05 11:20:16;;;;;;;4.32;3.40;;;;;;;24.18;nan;99550.53;6133458;23;20189;-80
2023/05/05 11:23:09;;;;;;;3.80;3.40;;;;;;;24.66;nan;99549.88;6183736;23;20163;-81
2023/05/05 11:25:35;;;;;;;5.45;3.90;;;;;;;24.89;nan;99548.75;6139789;23;20205;-79
2023/05/05 11:28:13;;;;;;;3.65;3.15;;;;;;;25.04;nan;99558.47;6210114;23;20158;-80
2023/05/05 11:30:57;;;;;;;3.72;3.42;;;;;;;25.28;nan;99545.19;6182092;23;20237;-79
2023/05/05 11:33:29;;;;;;;5.07;3.53;;;;;;;25.32;nan;99546.97;6212650;23;20158;-79
2023/05/05 11:36:01;;;;;;;4.68;3.40;;;;;;;25.13;nan;99545.59;6187404;23;20177;-78
2023/05/05 11:38:52;;;;;;;4.13;3.67;;;;;;;25.47;nan;99544.91;6163581;23;20251;-80
2023/05/05 11:41:56;;;;;;;4.55;3.35;;;;;;;25.60;nan;99533.81;6162924;23;20196;-80
2023/05/05 11:44:31;;;;;;;3.90;3.50;;;;;;;25.74;nan;99537.22;6120358;23;20170;-79
2023/05/05 11:46:58;;;;;;;3.60;3.35;;;;;;;25.07;nan;99531.25;6138556;23;20185;-81
2023/05/05 11:49:38;;;;;;;3.60;3.30;;;;;;;25.38;nan;99529.22;6213535;23;20162;-80
2023/05/05 11:52:09;;;;;;;5.50;3.60;;;;;;;25.61;nan;99524.47;6187535;23;20150;-80
2023/05/05 11:54:40;;;;;;;4.10;3.30;;;;;;;25.60;nan;99516.56;6138216;23;20667;-79
2023/05/05 11:57:07;;;;;;;3.30;3.00;;;;;;;25.65;nan;99516.41;6163434;23;20195;-79
2023/05/05 11:59:47;;;;;;;3.38;2.85;;;;;;;25.70;nan;99518.97;6162305;23;20196;-80
2023/05/05 12:02:16;;;;;;;3.70;2.70;;;;;;;25.88;nan;99509.63;6213405;23;20216;-80
2023/05/05 12:04:42;;;;;;;3.03;2.80;;;;;;;26.03;nan;99511.88;6162368;23;20173;-81
2023/05/05 12:07:17;;;;;;;4.10;3.15;;;;;;;25.97;nan;99515.09;6187328;23;20288;-79